This is the latest recevied weather packets stored in our database for station/object SP1JT-10. If no packets are shown the sender has not sent any weather packets the latest 10 day(s).
| Time | Temp. | Humidity | Pressure | Rain* | Wind** | Luminosity | Snow |
|---|---|---|---|---|---|---|---|
| 1778219613 | 4.44° C | 99% | 1022.6 hPa | - | - | - | - |
| 1778218754 | 3.89° C | 10% | - | - | - | - | - |
| 1778213354 | 2.22° C | 10% | - | - | - | - | - |
| 1778210955 | 2.22° C | 10% | - | - | - | - | - |
| 1778205554 | 2.22° C | 98% | 1021.7 hPa | - | - | - | - |
| 1778201353 | 3.33° C | 94% | 1021.6 hPa | - | - | - | - |
| 1778198953 | 3.89° C | 93% | 1021.7 hPa | - | - | - | - |
| 1778195352 | 4.44° C | 89% | 1021.6 hPa | - | - | - | - |
| 1778192954 | 5° C | 85% | 1021.4 hPa | - | - | - | - |
| 1778191155 | 5° C | 84% | 1021.3 hPa | - | - | - | - |
| 1778190554 | 5° C | 84% | 1021.1 hPa | - | - | - | - |
| 1778189955 | 5° C | 83% | 1021.1 hPa | - | - | - | - |
| 1778187553 | 5.56° C | 83% | 1020.9 hPa | - | - | - | - |
| 1778187434 | 5.56° C | 83% | 1020.8 hPa | - | - | - | - |
| 1778184554 | 5.56° C | 82% | 1020.5 hPa | - | - | - | - |
| 1778182753 | 6.11° C | 81% | 1020.1 hPa | - | - | - | - |
| 1778180233 | 6.67° C | 77% | 1019.8 hPa | - | - | - | - |
| 1778178253 | 7.22° C | 76% | 1019.5 hPa | - | - | - | - |
| 1778169556 | 9.44° C | 65% | 1018.5 hPa | - | - | - | - |
| 1778168353 | 9.44° C | 67% | 1018.4 hPa | - | - | - | - |
| 1778166555 | 10° C | 64% | 1018.3 hPa | - | - | - | - |
| 1778159353 | 10° C | 66% | 1017.9 hPa | - | - | - | - |
| 1778154553 | 8.89° C | 70% | 1017.5 hPa | - | - | - | - |
| 1778152154 | 8.89° C | 71% | 1017.4 hPa | - | - | - | - |
| 1778151554 | 8.89° C | 71% | 1017.3 hPa | - | - | - | - |
* Rain since midnight (hover to see other rain measurements)
** Current wind speed in m/s (hover to see current wind gust speed)